createdAt,value
2023-04-27T00:01:27.898Z,97186.06
2023-04-27T00:04:13.314Z,97179.25
2023-04-27T00:06:58.771Z,97179.81
2023-04-27T00:09:44.006Z,97183.06
2023-04-27T00:12:29.449Z,97185.50
2023-04-27T00:15:14.654Z,97175.47
2023-04-27T00:18:00.255Z,97176.03
2023-04-27T00:20:45.611Z,97171.91
2023-04-27T00:23:30.922Z,97171.66
2023-04-27T00:26:16.270Z,97168.41
2023-04-27T00:29:01.602Z,97164.31
2023-04-27T00:31:47.163Z,97167.56
2023-04-27T00:34:32.489Z,97173.81
2023-04-27T00:37:17.740Z,97169.19
2023-04-27T00:40:03.135Z,97165.69
2023-04-27T00:42:48.639Z,97156.16
2023-04-27T00:45:35.769Z,97170.56
2023-04-27T00:48:20.851Z,97177.34
2023-04-27T00:51:06.225Z,97171.09
2023-04-27T00:53:51.752Z,97166.75
2023-04-27T00:56:37.169Z,97176.53
2023-04-27T00:59:22.578Z,97168.38
2023-04-27T01:02:07.880Z,97173.53
2023-04-27T01:04:53.310Z,97171.38
2023-04-27T01:07:38.562Z,97176.53
2023-04-27T01:10:23.962Z,97177.63
2023-04-27T01:13:09.468Z,97178.16
2023-04-27T01:15:54.938Z,97176.81
2023-04-27T01:18:40.317Z,97170.00
2023-04-27T01:21:32.286Z,97175.19
2023-04-27T01:24:17.392Z,97177.63
2023-04-27T01:27:02.846Z,97179.81
2023-04-27T01:29:48.250Z,97182.53
2023-04-27T01:32:33.541Z,97185.78
2023-04-27T01:35:18.775Z,97187.41
2023-04-27T01:38:04.078Z,97193.66
2023-04-27T01:40:49.477Z,97201.28
2023-04-27T01:43:34.994Z,97189.84
2023-04-27T01:46:20.312Z,97195.56
2023-04-27T01:49:05.678Z,97201.56
2023-04-27T01:51:51.091Z,97190.94
2023-04-27T01:54:36.508Z,97190.41
2023-04-27T01:57:21.312Z,97189.03
2023-04-27T02:00:06.737Z,97183.59
2023-04-27T02:02:52.323Z,97191.50
2023-04-27T02:05:37.306Z,97185.25
2023-04-27T02:08:22.394Z,97178.97
2023-04-27T02:11:07.699Z,97179.81
2023-04-27T02:13:53.064Z,97183.88
2023-04-27T02:16:38.497Z,97190.94
2023-04-27T02:19:23.849Z,97188.22
2023-04-27T02:22:09.433Z,97189.59
2023-04-27T02:24:54.921Z,97185.25
2023-04-27T02:27:40.335Z,97183.34
2023-04-27T02:30:26.342Z,97186.88
2023-04-27T02:33:11.590Z,97191.22
2023-04-27T02:35:57.190Z,97188.50
2023-04-27T02:38:42.564Z,97193.41
2023-04-27T02:41:28.148Z,97192.03
2023-04-27T02:44:13.561Z,97196.38
2023-04-27T02:46:59.059Z,97196.66
2023-04-27T02:49:44.429Z,97196.38
2023-04-27T02:52:29.489Z,97191.22
2023-04-27T02:55:14.691Z,97195.03
2023-04-27T02:58:00.030Z,97203.19
2023-04-27T03:00:45.610Z,97201.28
2023-04-27T03:03:31.250Z,97209.44
2023-04-27T03:06:16.316Z,97202.38
2023-04-27T03:09:01.592Z,97212.69
2023-04-27T03:11:47.037Z,97211.34
2023-04-27T03:14:32.278Z,97207.00
2023-04-27T03:17:17.586Z,97205.91
2023-04-27T03:20:02.782Z,97213.78
2023-04-27T03:22:48.276Z,97214.59
2023-04-27T03:25:33.623Z,97210.53
2023-04-27T03:28:18.993Z,97213.78
2023-04-27T03:31:04.336Z,97211.63
2023-04-27T03:33:49.570Z,97213.50
2023-04-27T03:36:34.911Z,97213.78
2023-04-27T03:39:20.292Z,97220.00
2023-04-27T03:42:05.948Z,97209.72
2023-04-27T03:44:51.285Z,97215.69
2023-04-27T03:47:36.698Z,97209.97
2023-04-27T03:50:21.782Z,97214.06
2023-04-27T03:53:07.024Z,97221.94
2023-04-27T03:55:52.467Z,97216.50
2023-04-27T03:58:37.785Z,97220.03
2023-04-27T04:01:23.101Z,97216.22
2023-04-27T04:04:08.711Z,97214.88
2023-04-27T04:06:53.950Z,97211.59
2023-04-27T04:09:39.397Z,97215.41
2023-04-27T04:12:24.722Z,97221.91
2023-04-27T04:15:10.105Z,97214.59
2023-04-27T04:17:55.063Z,97214.06
2023-04-27T04:20:40.206Z,97209.97
2023-04-27T04:23:25.444Z,97217.59
2023-04-27T04:26:10.905Z,97214.06
2023-04-27T04:28:56.128Z,97215.97
2023-04-27T04:31:41.157Z,97211.06
2023-04-27T04:34:26.687Z,97218.13
2023-04-27T04:37:12.004Z,97210.78
2023-04-27T04:39:57.484Z,97214.88
2023-04-27T04:42:42.783Z,97214.88
2023-04-27T04:45:28.957Z,97209.72
2023-04-27T04:48:14.354Z,97208.59
2023-04-27T04:50:59.683Z,97205.91
2023-04-27T04:53:44.971Z,97211.34
2023-04-27T04:56:30.250Z,97208.88
2023-04-27T04:59:15.560Z,97213.19
2023-04-27T05:02:01.359Z,97217.31
2023-04-27T05:04:46.682Z,97218.09
2023-04-27T05:07:31.999Z,97216.72
2023-04-27T05:10:17.386Z,97223.81
2023-04-27T05:13:03.484Z,97225.16
2023-04-27T05:15:49.799Z,97226.53
2023-04-27T05:18:35.158Z,97226.78
2023-04-27T05:21:20.354Z,97231.94
2023-04-27T05:24:05.646Z,97230.28
2023-04-27T05:26:51.008Z,97235.16
2023-04-27T05:29:36.355Z,97230.56
2023-04-27T05:32:21.771Z,97231.38
2023-04-27T05:35:07.239Z,97233.25
2023-04-27T05:37:52.522Z,97231.66
2023-04-27T05:40:37.835Z,97237.91
2023-04-27T05:43:23.169Z,97241.44
2023-04-27T05:46:08.321Z,97249.31
2023-04-27T05:48:53.685Z,97246.00
2023-04-27T05:51:38.928Z,97244.91
2023-04-27T05:54:24.554Z,97252.03
2023-04-27T05:57:09.615Z,97255.06
2023-04-27T05:59:55.008Z,97250.72
2023-04-27T06:02:40.522Z,97252.03
2023-04-27T06:05:25.535Z,97254.44
2023-04-27T06:08:10.617Z,97257.16
2023-04-27T06:10:55.646Z,97257.44
2023-04-27T06:13:40.938Z,97264.25
2023-04-27T06:16:26.308Z,97262.88
2023-04-27T06:19:11.870Z,97259.06
2023-04-27T06:21:57.268Z,97261.06
2023-04-27T06:24:42.564Z,97259.94
2023-04-27T06:27:28.027Z,97261.22
2023-04-27T06:30:13.309Z,97263.94
2023-04-27T06:32:58.753Z,97269.91
2023-04-27T06:35:46.481Z,97270.75
2023-04-27T06:38:32.205Z,97258.28
2023-04-27T06:41:17.742Z,97260.72
2023-04-27T06:44:03.118Z,97262.97
2023-04-27T06:46:48.283Z,97268.94
2023-04-27T06:49:33.832Z,97271.13
2023-04-27T06:52:19.189Z,97271.38
2023-04-27T06:55:04.637Z,97264.59
2023-04-27T06:57:50.137Z,97260.78
2023-04-27T07:00:35.579Z,97271.13
2023-04-27T07:03:21.414Z,97272.75
2023-04-27T07:06:06.463Z,97273.84
2023-04-27T07:08:51.959Z,97265.69
2023-04-27T07:11:37.289Z,97265.63
2023-04-27T07:14:22.832Z,97275.09
2023-04-27T07:17:08.106Z,97279.50
2023-04-27T07:19:53.319Z,97271.09
2023-04-27T07:22:38.808Z,97265.63
2023-04-27T07:25:24.250Z,97269.66
2023-04-27T07:28:09.561Z,97267.78
2023-04-27T07:30:54.691Z,97255.88
2023-04-27T07:33:40.211Z,97253.09
2023-04-27T07:36:25.728Z,97245.00
2023-04-27T07:39:11.103Z,97243.66
2023-04-27T07:41:56.534Z,97247.94
2023-04-27T07:44:43.102Z,97249.09
2023-04-27T07:47:28.544Z,97253.19
2023-04-27T07:50:14.157Z,97246.66
2023-04-27T07:52:59.529Z,97252.03
2023-04-27T07:55:44.590Z,97252.28
2023-04-27T07:58:29.925Z,97246.91
2023-04-27T08:01:15.311Z,97248.28
2023-04-27T08:04:00.838Z,97244.97
2023-04-27T08:06:47.062Z,97254.00
2023-04-27T08:09:32.540Z,97252.63
2023-04-27T08:12:17.937Z,97248.22
2023-04-27T08:15:03.294Z,97247.19
2023-04-27T08:17:48.820Z,97240.94
2023-04-27T08:20:34.182Z,97237.69
2023-04-27T08:23:19.647Z,97229.78
2023-04-27T08:26:04.623Z,97234.97
2023-04-27T08:28:50.110Z,97230.88
2023-04-27T08:31:35.772Z,97224.63
2023-04-27T08:34:20.901Z,97233.31
2023-04-27T08:37:06.272Z,97230.06
2023-04-27T08:39:51.460Z,97226.81
2023-04-27T08:42:36.759Z,97233.06
2023-04-27T08:45:22.983Z,97226.03
2023-04-27T08:48:08.376Z,97232.25
2023-04-27T08:50:53.819Z,97233.31
2023-04-27T08:53:39.153Z,97240.66
2023-04-27T08:56:24.690Z,97223.84
2023-04-27T08:59:10.038Z,97228.16
2023-04-27T09:01:55.323Z,97225.19
2023-04-27T09:04:40.897Z,97228.16
2023-04-27T09:07:27.416Z,97220.84
2023-04-27T09:10:13.701Z,97220.00
2023-04-27T09:12:58.935Z,97220.31
2023-04-27T09:15:46.267Z,97225.75
2023-04-27T09:18:34.192Z,97227.91
2023-04-27T09:21:19.452Z,97230.88
2023-04-27T09:24:04.735Z,97230.59
2023-04-27T09:26:50.101Z,97225.19
2023-04-27T09:29:35.547Z,97224.13
2023-04-27T09:32:21.110Z,97226.28
2023-04-27T09:35:06.586Z,97216.22
2023-04-27T09:37:51.842Z,97204.81
2023-04-27T09:40:37.359Z,97213.50
2023-04-27T09:43:22.794Z,97209.97
2023-04-27T09:46:08.313Z,97209.16
2023-04-27T09:48:53.544Z,97217.03
2023-04-27T09:51:38.978Z,97217.88
2023-04-27T09:54:24.433Z,97212.16
2023-04-27T09:57:09.739Z,97208.34
2023-04-27T09:59:55.216Z,97199.91
2023-04-27T10:02:52.575Z,97194.75
2023-04-27T10:05:40.249Z,97197.75
2023-04-27T10:08:25.315Z,97192.56
2023-04-27T10:11:10.785Z,97190.41
2023-04-27T10:13:56.076Z,97190.69
2023-04-27T10:16:41.315Z,97186.31
2023-04-27T10:19:26.603Z,97186.59
2023-04-27T10:22:11.988Z,97183.06
2023-04-27T10:24:57.562Z,97183.59
2023-04-27T10:27:42.924Z,97180.88
2023-04-27T10:30:28.046Z,97189.31
2023-04-27T10:33:13.536Z,97187.41
2023-04-27T10:35:58.930Z,97188.50
2023-04-27T10:38:44.448Z,97188.50
2023-04-27T10:41:29.751Z,97190.69
2023-04-27T10:44:15.268Z,97187.97
2023-04-27T10:47:00.670Z,97184.44
2023-04-27T10:49:46.049Z,97181.13
2023-04-27T10:52:31.641Z,97175.94
2023-04-27T10:55:17.007Z,97160.16
2023-04-27T10:58:02.299Z,97162.88
2023-04-27T11:00:47.716Z,97161.81
2023-04-27T11:03:33.007Z,97163.69
2023-04-27T11:06:18.481Z,97170.50
2023-04-27T11:09:03.821Z,97165.59
2023-04-27T11:11:49.335Z,97167.50
2023-04-27T11:14:34.491Z,97168.03
2023-04-27T11:17:19.990Z,97168.06
2023-04-27T11:20:05.323Z,97168.59
2023-04-27T11:22:50.758Z,97162.63
2023-04-27T11:25:36.311Z,97155.25
2023-04-27T11:28:21.595Z,97147.94
2023-04-27T11:31:07.000Z,97151.69
2023-04-27T11:33:52.220Z,97150.88
2023-04-27T11:36:37.969Z,97150.91
2023-04-27T11:39:23.444Z,97151.41
2023-04-27T11:42:08.981Z,97142.94
2023-04-27T11:44:54.422Z,97131.56
2023-04-27T11:47:39.805Z,97135.66
2023-04-27T11:50:25.240Z,97144.09
2023-04-27T11:53:10.559Z,97134.25
2023-04-27T11:55:55.805Z,97141.34
2023-04-27T11:58:41.183Z,97136.94
2023-04-27T12:01:36.905Z,97138.84
2023-04-27T12:04:23.489Z,97135.53
2023-04-27T12:07:08.551Z,97133.66
2023-04-27T12:09:53.999Z,97137.25
2023-04-27T12:12:39.431Z,97136.13
2023-04-27T12:15:24.666Z,97137.16
2023-04-27T12:18:10.172Z,97134.00
2023-04-27T12:20:55.418Z,97129.41
2023-04-27T12:23:40.399Z,97137.03
2023-04-27T12:26:25.575Z,97132.38
2023-04-27T12:29:10.998Z,97129.25
2023-04-27T12:31:56.367Z,97132.03
2023-04-27T12:34:41.746Z,97126.97
2023-04-27T12:37:27.275Z,97140.06
2023-04-27T12:40:12.435Z,97130.47
2023-04-27T12:43:00.478Z,97135.69
2023-04-27T12:45:46.107Z,97131.56
2023-04-27T12:48:31.427Z,97131.50
2023-04-27T12:51:16.797Z,97132.19
2023-04-27T12:54:02.114Z,97131.91
2023-04-27T12:56:47.599Z,97127.53
2023-04-27T12:59:32.806Z,97123.50
2023-04-27T13:02:18.179Z,97124.84
2023-04-27T13:05:03.656Z,97127.00
2023-04-27T13:07:48.816Z,97120.28
2023-04-27T13:10:34.434Z,97109.34
2023-04-27T13:13:19.726Z,97109.84
2023-04-27T13:16:05.136Z,97110.34
2023-04-27T13:18:50.553Z,97111.13
2023-04-27T13:21:35.918Z,97109.00
2023-04-27T13:24:21.473Z,97117.22
2023-04-27T13:27:06.671Z,97119.66
2023-04-27T13:29:52.196Z,97104.09
2023-04-27T13:32:37.689Z,97109.31
2023-04-27T13:35:22.821Z,97104.72
2023-04-27T13:38:07.994Z,97099.50
2023-04-27T13:40:53.348Z,97107.88
2023-04-27T13:43:38.850Z,97099.28
2023-04-27T13:46:24.373Z,97098.69
2023-04-27T13:49:09.794Z,97099.00
2023-04-27T13:51:55.208Z,97094.94
2023-04-27T13:54:40.290Z,97098.25
2023-04-27T13:57:25.796Z,97100.97
2023-04-27T14:00:10.836Z,97094.41
2023-04-27T14:02:56.597Z,97092.81
2023-04-27T14:05:41.827Z,97095.78
2023-04-27T14:08:27.211Z,97082.75
2023-04-27T14:11:12.823Z,97086.75
2023-04-27T14:13:58.158Z,97084.31
2023-04-27T14:16:43.851Z,97085.97
2023-04-27T14:19:29.073Z,97077.28
2023-04-27T14:22:14.451Z,97085.19
2023-04-27T14:24:59.903Z,97071.88
2023-04-27T14:27:45.336Z,97070.50
2023-04-27T14:30:30.720Z,97077.03
2023-04-27T14:33:16.189Z,97081.84
2023-04-27T14:36:01.565Z,97079.13
2023-04-27T14:38:46.869Z,97079.91
2023-04-27T14:41:32.179Z,97077.09
2023-04-27T14:44:17.515Z,97078.28
2023-04-27T14:47:02.811Z,97071.41
2023-04-27T14:49:48.234Z,97074.06
2023-04-27T14:52:34.128Z,97070.09
2023-04-27T14:55:19.501Z,97064.84
2023-04-27T14:58:05.172Z,97063.56
2023-04-27T15:00:50.384Z,97060.50
2023-04-27T15:03:36.022Z,97059.47
2023-04-27T15:06:21.195Z,97057.47
2023-04-27T15:09:06.647Z,97064.78
2023-04-27T15:11:52.135Z,97062.16
2023-04-27T15:14:37.448Z,97065.44
2023-04-27T15:17:22.855Z,97066.06
2023-04-27T15:20:08.272Z,97072.81
2023-04-27T15:22:53.765Z,97062.66
2023-04-27T15:25:39.051Z,97060.31
2023-04-27T15:28:24.496Z,97063.63
2023-04-27T15:31:09.898Z,97059.81
2023-04-27T15:33:55.233Z,97063.63
2023-04-27T15:36:40.848Z,97056.03
2023-04-27T15:39:26.108Z,97056.41
2023-04-27T15:42:11.453Z,97059.41
2023-04-27T15:44:56.611Z,97055.59
2023-04-27T15:47:41.982Z,97051.13
2023-04-27T15:50:27.097Z,97049.59
2023-04-27T15:53:12.369Z,97046.94
2023-04-27T15:55:57.709Z,97043.66
2023-04-27T15:58:43.204Z,97048.78
2023-04-27T16:01:28.709Z,97039.72
2023-04-27T16:04:14.176Z,97038.34
2023-04-27T16:06:59.390Z,97034.94
2023-04-27T16:09:44.542Z,97035.31
2023-04-27T16:12:29.753Z,97033.63
2023-04-27T16:15:15.226Z,97023.41
2023-04-27T16:18:00.611Z,97024.69
2023-04-27T16:20:45.748Z,97024.56
2023-04-27T16:23:31.251Z,97023.97
2023-04-27T16:26:16.517Z,97015.34
2023-04-27T16:29:01.831Z,97011.44
2023-04-27T16:31:47.248Z,97012.09
2023-04-27T16:34:32.491Z,97016.22
2023-04-27T16:37:17.914Z,97015.47
2023-04-27T16:40:03.333Z,97013.44
2023-04-27T16:42:48.702Z,97015.28
2023-04-27T16:45:33.992Z,97008.38
2023-04-27T16:48:19.362Z,97013.81
2023-04-27T16:51:05.052Z,97013.78
2023-04-27T16:53:50.199Z,97014.84
2023-04-27T16:56:35.576Z,97006.38
2023-04-27T16:59:20.751Z,97009.44
2023-04-27T17:02:20.863Z,97006.91
2023-04-27T17:05:09.396Z,97003.84
2023-04-27T17:07:54.675Z,97012.84
2023-04-27T17:10:40.072Z,97011.56
2023-04-27T17:13:25.300Z,97009.28
2023-04-27T17:16:10.809Z,97020.75
2023-04-27T17:18:56.234Z,97017.19
2023-04-27T17:21:41.620Z,97028.59
2023-04-27T17:24:27.177Z,97018.91
2023-04-27T17:27:12.606Z,97024.00
2023-04-27T17:29:58.101Z,97020.97
2023-04-27T17:32:43.253Z,97025.34
2023-04-27T17:35:28.500Z,97026.56
2023-04-27T17:38:13.890Z,97020.41
2023-04-27T17:40:59.006Z,97017.16
2023-04-27T17:43:44.327Z,97023.81
2023-04-27T17:46:29.441Z,97017.41
2023-04-27T17:49:15.065Z,97022.97
2023-04-27T17:52:00.242Z,97011.94
2023-04-27T17:54:45.282Z,97018.06
2023-04-27T17:57:30.815Z,97019.13
2023-04-27T18:00:16.130Z,97024.50
2023-04-27T18:03:01.717Z,97029.13
2023-04-27T18:05:46.761Z,97031.81
2023-04-27T18:08:31.643Z,97031.81
2023-04-27T18:11:16.757Z,97041.44
2023-04-27T18:14:02.038Z,97036.28
2023-04-27T18:16:47.490Z,97034.34
2023-04-27T18:19:34.601Z,97040.59
2023-04-27T18:22:19.698Z,97040.16
2023-04-27T18:25:05.013Z,97041.25
2023-04-27T18:27:50.313Z,97044.19
2023-04-27T18:30:35.696Z,97035.53
2023-04-27T18:33:21.038Z,97030.66
2023-04-27T18:36:06.185Z,97034.75
2023-04-27T18:38:54.754Z,97036.13
2023-04-27T18:41:40.343Z,97032.63
2023-04-27T18:44:25.598Z,97044.59
2023-04-27T18:47:10.604Z,97045.41
2023-04-27T18:49:56.024Z,97048.63
2023-04-27T18:52:43.719Z,97050.28
2023-04-27T18:55:30.035Z,97051.63
2023-04-27T18:58:15.211Z,97045.91
2023-04-27T19:01:00.762Z,97044.88
2023-04-27T19:03:46.164Z,97045.59
2023-04-27T19:06:31.554Z,97042.41
2023-04-27T19:09:16.962Z,97049.50
2023-04-27T19:12:03.388Z,97057.38
2023-04-27T19:14:48.903Z,97053.03
2023-04-27T19:17:34.502Z,97056.28
2023-04-27T19:20:20.302Z,97061.94
2023-04-27T19:23:07.723Z,97060.91
2023-04-27T19:25:55.140Z,97060.38
2023-04-27T19:28:42.729Z,97065.50
2023-04-27T19:31:28.134Z,97070.69
2023-04-27T19:34:13.329Z,97069.94
2023-04-27T19:36:58.752Z,97072.34
2023-04-27T19:39:43.968Z,97073.97
2023-04-27T19:42:29.467Z,97080.75
2023-04-27T19:45:14.800Z,97087.28
2023-04-27T19:48:00.393Z,97087.72
2023-04-27T19:50:45.718Z,97092.53
2023-04-27T19:53:30.992Z,97090.28
2023-04-27T19:56:16.606Z,97095.31
2023-04-27T19:59:01.966Z,97099.63
2023-04-27T20:01:47.513Z,97099.66
2023-04-27T20:04:33.356Z,97098.00
2023-04-27T20:07:22.037Z,97101.81
2023-04-27T20:10:07.369Z,97091.69
2023-04-27T20:12:56.563Z,97096.94
2023-04-27T20:15:42.240Z,97110.00
2023-04-27T20:18:28.043Z,97111.28
2023-04-27T20:21:13.307Z,97115.72
2023-04-27T20:23:58.679Z,97107.88
2023-04-27T20:26:44.227Z,97116.56
2023-04-27T20:29:29.570Z,97109.78
2023-04-27T20:32:15.113Z,97111.91
2023-04-27T20:35:02.077Z,97118.16
2023-04-27T20:37:47.224Z,97111.47
2023-04-27T20:40:32.531Z,97118.53
2023-04-27T20:43:17.861Z,97116.88
2023-04-27T20:46:03.328Z,97120.41
2023-04-27T20:48:48.776Z,97113.59
2023-04-27T20:51:34.081Z,97109.28
2023-04-27T20:54:19.497Z,97104.88
2023-04-27T20:57:04.726Z,97103.25
2023-04-27T20:59:50.095Z,97104.59
2023-04-27T21:02:35.597Z,97104.84
2023-04-27T21:05:20.919Z,97110.88
2023-04-27T21:08:06.080Z,97114.44
2023-04-27T21:10:51.278Z,97105.19
2023-04-27T21:13:36.787Z,97099.47
2023-04-27T21:16:22.021Z,97099.41
2023-04-27T21:19:07.213Z,97099.47
2023-04-27T21:21:52.718Z,97099.47
2023-04-27T21:24:37.970Z,97093.75
2023-04-27T21:27:23.374Z,97090.22
2023-04-27T21:30:08.806Z,97090.19
2023-04-27T21:32:54.516Z,97088.84
2023-04-27T21:35:39.868Z,97086.38
2023-04-27T21:38:25.218Z,97083.44
2023-04-27T21:41:10.292Z,97088.03
2023-04-27T21:43:55.415Z,97094.63
2023-04-27T21:46:40.893Z,97092.19
2023-04-27T21:49:26.207Z,97091.31
2023-04-27T21:52:11.667Z,97090.22
2023-04-27T21:54:57.218Z,97082.13
2023-04-27T21:57:42.253Z,97090.75
2023-04-27T22:00:27.684Z,97083.44
2023-04-27T22:03:13.277Z,97087.81
2023-04-27T22:05:58.333Z,97088.38
2023-04-27T22:08:43.938Z,97093.00
2023-04-27T22:11:29.122Z,97086.94
2023-04-27T22:14:14.753Z,97090.22
2023-04-27T22:16:59.871Z,97084.28
2023-04-27T22:19:45.865Z,97098.16
2023-04-27T22:22:31.201Z,97089.13
2023-04-27T22:25:16.404Z,97094.06
2023-04-27T22:28:02.025Z,97100.06
2023-04-27T22:30:47.248Z,97095.16
2023-04-27T22:33:32.485Z,97095.97
2023-04-27T22:36:17.677Z,97096.53
2023-04-27T22:39:03.203Z,97096.25
2023-04-27T22:41:48.611Z,97096.53
2023-04-27T22:44:34.093Z,97094.34
2023-04-27T22:47:19.725Z,97086.16
2023-04-27T22:50:04.811Z,97086.47
2023-04-27T22:52:50.138Z,97096.25
2023-04-27T22:55:35.582Z,97090.53
2023-04-27T22:58:21.063Z,97085.91
2023-04-27T23:01:06.615Z,97089.75
2023-04-27T23:03:51.917Z,97084.84
2023-04-27T23:06:37.165Z,97091.69
2023-04-27T23:09:22.482Z,97088.41
2023-04-27T23:12:07.923Z,97094.91
2023-04-27T23:14:53.361Z,97097.88
2023-04-27T23:17:38.648Z,97093.53
2023-04-27T23:20:28.708Z,97098.44
2023-04-27T23:23:14.468Z,97091.91
2023-04-27T23:25:59.838Z,97090.28
2023-04-27T23:28:45.142Z,97098.22
2023-04-27T23:31:30.512Z,97083.50
2023-04-27T23:34:16.200Z,97096.34
2023-04-27T23:37:01.861Z,97093.06
2023-04-27T23:39:47.210Z,97094.34
2023-04-27T23:42:32.604Z,97090.31
2023-04-27T23:45:17.719Z,97095.22
2023-04-27T23:48:03.249Z,97100.31
2023-04-27T23:50:48.658Z,97096.78
2023-04-27T23:53:34.004Z,97095.72
2023-04-27T23:56:19.536Z,97094.34
2023-04-27T23:59:04.888Z,97090.00
